Time;durP1;ratioP1;P1;durP2;ratioP2;P2;SDS_P1;SDS_P2;PMS_P1;PMS_P2;Temp;Humidity;BMP_temperature;BMP_pressure;BME280_temperature;BME280_humidity;BME280_pressure;Samples;Min_cycle;Max_cycle;Signal;HPM_P1;HPM_P2
2022/06/02 00:01:27;;;;;;;5.33;4.67;;;;;;;21.38;63.00;100586.63;1610084;87;21060;-71
2022/06/02 00:04:29;;;;;;;6.83;4.73;;;;;;;21.36;63.39;100589.46;1625696;86;21355;-71
2022/06/02 00:07:22;;;;;;;7.83;4.83;;;;;;;21.31;63.73;100590.40;1622501;85;21262;-71
2022/06/02 00:10:07;;;;;;;7.00;4.70;;;;;;;21.27;64.03;100586.19;1624154;85;21116;-72
2022/06/02 00:12:49;;;;;;;5.37;4.43;;;;;;;21.23;64.13;100593.41;1626386;86;21179;-72
2022/06/02 00:15:28;;;;;;;;;;;;;;;21.23;64.22;100594.77;1625617;86;21093;-71
2022/06/02 00:18:07;;;;;;;6.93;4.60;;;;;;;21.20;64.47;100590.55;1622273;86;20150;-71
2022/06/02 00:20:58;;;;;;;7.57;4.80;;;;;;;21.15;64.63;100587.44;1594916;88;21576;-71
2022/06/02 00:23:50;;;;;;;6.63;4.57;;;;;;;21.15;65.00;100588.80;1622947;86;21540;-71
2022/06/02 00:26:48;;;;;;;5.90;4.70;;;;;;;;;;1623730;86;21131;-71
2022/06/02 00:29:32;;;;;;;5.30;4.27;;;;;;;21.06;65.71;100583.99;1619453;87;21088;-71
2022/06/02 00:32:11;;;;;;;7.13;4.80;;;;;;;21.02;65.92;100582.47;1616917;87;21123;-73
2022/06/02 00:35:10;;;;;;;6.53;4.83;;;;;;;20.99;66.17;100580.97;1618010;86;21756;-70
2022/06/02 00:37:58;;;;;;;6.53;4.80;;;;;;;20.95;66.34;100586.82;1619048;86;21053;-71
2022/06/02 00:40:27;;;;;;;5.47;4.93;;;;;;;20.92;66.47;100580.69;1624183;87;21133;-70
2022/06/02 00:43:10;;;;;;;6.77;4.47;;;;;;;20.88;66.64;100575.67;1609080;88;21084;-71
2022/06/02 00:45:44;;;;;;;6.60;4.30;;;;;;;20.80;66.80;100583.53;1606154;86;21060;-70
2022/06/02 00:48:28;;;;;;;6.30;4.73;;;;;;;20.75;66.95;100586.41;1622709;86;21618;-70
2022/06/02 00:51:05;;;;;;;5.97;4.60;;;;;;;20.72;67.06;100582.98;1622547;85;21160;-71
2022/06/02 01:00:23;;;;;;;5.57;4.63;;;;;;;20.54;67.77;100597.73;1609315;87;21134;-71
2022/06/02 01:02:58;;;;;;;7.20;4.57;;;;;;;20.49;68.07;100590.52;1650431;85;21198;-72
2022/06/02 01:05:53;;;;;;;4.87;4.37;;;;;;;20.48;68.39;100588.14;1649146;85;20977;-71
2022/06/02 01:08:52;;;;;;;6.17;4.57;;;;;;;20.48;68.57;100597.64;1627138;86;21104;-71
2022/06/02 01:11:30;;;;;;;6.67;4.40;;;;;;;20.46;68.74;100596.59;1622841;87;21599;-71
2022/06/02 01:14:38;;;;;;;6.10;4.83;;;;;;;20.45;68.77;100598.28;1593248;86;22211;-71
2022/06/02 01:17:46;;;;;;;6.90;4.37;;;;;;;20.42;68.94;100598.92;1627845;86;21948;-71
2022/06/02 01:20:37;;;;;;;7.20;4.47;;;;;;;20.41;69.05;100607.63;1625741;86;21125;-72
2022/06/02 01:23:42;;;;;;;6.30;4.67;;;;;;;20.37;69.49;100630.53;1626704;86;21052;-72
2022/06/02 01:26:56;;;;;;;7.23;4.30;;;;;;;20.30;70.05;100622.09;1627622;86;21656;-71
2022/06/02 01:29:46;;;;;;;6.17;4.37;;;;;;;20.28;69.91;100605.33;1624715;87;21077;-70
2022/06/02 01:32:18;;;;;;;4.87;4.30;;;;;;;20.31;70.14;100616.09;1626523;86;21857;-71
2022/06/02 01:35:26;;;;;;;6.63;4.70;;;;;;;20.28;70.48;100656.86;1628824;86;21701;-72
2022/06/02 01:38:17;;;;;;;7.70;4.83;;;;;;;20.24;70.54;100654.55;1629022;87;21068;-72
2022/06/02 01:41:13;;;;;;;7.50;5.20;;;;;;;20.19;70.12;100637.08;1612058;86;21059;-72
2022/06/02 01:44:07;;;;;;;5.60;4.67;;;;;;;20.19;70.04;100638.43;1633882;86;21110;-71
2022/06/02 01:46:57;;;;;;;5.30;4.80;;;;;;;20.13;70.12;100639.70;1624019;86;22171;-71
2022/06/02 01:49:55;;;;;;;7.13;5.27;;;;;;;20.09;69.97;100625.98;1598727;88;20987;-71
2022/06/02 01:52:43;;;;;;;5.93;4.90;;;;;;;20.07;69.94;100640.44;1622386;86;21080;-71
2022/06/02 01:55:34;;;;;;;7.50;5.10;;;;;;;20.07;70.02;100633.66;1623098;86;21119;-72
2022/06/02 01:58:40;;;;;;;7.22;5.40;;;;;;;19.81;70.76;100628.75;1600320;88;21168;-71
2022/06/02 02:01:42;;;;;;;7.43;5.70;;;;;;;19.76;71.04;100633.78;1604977;87;21295;-72
2022/06/02 02:04:36;;;;;;;8.47;5.53;;;;;;;19.76;71.16;100632.98;1624064;86;21099;-71
2022/06/02 02:07:29;;;;;;;7.40;5.33;;;;;;;20.03;70.48;100622.40;1624264;86;21017;-71
2022/06/02 02:10:33;;;;;;;7.63;5.53;;;;;;;20.11;70.05;100624.33;1593604;86;21077;-71
2022/06/02 02:13:26;;;;;;;6.93;5.33;;;;;;;20.13;70.00;100628.86;1622928;85;21155;-71
2022/06/02 02:16:17;;;;;;;6.53;5.37;;;;;;;20.17;69.87;100631.72;1600325;87;21807;-71
2022/06/02 02:19:12;;;;;;;6.37;5.17;;;;;;;20.20;69.79;100635.95;1627036;86;21144;-71
2022/06/02 02:21:53;;;;;;;6.33;5.03;;;;;;;20.23;69.77;100630.45;1623726;86;21120;-71
2022/06/02 02:25:03;;;;;;;6.30;5.23;;;;;;;20.19;69.86;100632.22;1601625;88;21118;-71
2022/06/02 02:28:04;;;;;;;7.80;5.00;;;;;;;20.25;69.88;100631.73;1624056;86;21092;-72
2022/06/02 02:30:57;;;;;;;;;;;;;;;20.32;69.74;100622.55;1630304;87;21911;-71
2022/06/02 02:33:46;;;;;;;8.25;5.80;;;;;;;20.41;69.66;100624.47;1635794;87;20196;-71
2022/06/02 02:36:33;;;;;;;7.20;5.27;;;;;;;20.39;69.72;100620.14;1626843;86;21077;-71
2022/06/02 02:39:05;;;;;;;6.47;5.30;;;;;;;20.44;69.73;100626.55;1624496;86;21067;-71
2022/06/02 02:41:43;;;;;;;6.50;5.50;;;;;;;20.47;69.71;100623.19;1622540;87;21452;-71
2022/06/02 02:44:46;;;;;;;6.80;5.47;;;;;;;20.49;69.71;100628.50;1619951;86;21144;-71
2022/06/02 02:47:40;;;;;;;6.10;5.40;;;;;;;20.51;69.69;100632.30;1623182;86;21096;-71
2022/06/02 02:50:12;;;;;;;7.03;5.53;;;;;;;20.59;69.66;100635.55;1600217;87;21037;-71
2022/06/02 02:52:57;;;;;;;8.27;6.07;;;;;;;20.62;69.75;100633.55;1590247;88;21067;-71
2022/06/02 02:55:41;;;;;;;7.07;5.40;;;;;;;20.68;69.71;100640.41;1625608;86;21055;-71
2022/06/02 02:58:32;;;;;;;5.80;5.17;;;;;;;20.70;69.77;100646.87;1623730;86;21884;-71
2022/06/02 03:01:07;;;;;;;7.70;5.80;;;;;;;20.75;69.71;100658.34;1620679;86;20962;-71
2022/06/02 03:03:43;;;;;;;6.50;5.30;;;;;;;20.84;69.47;100670.55;1556878;88;21200;-72
2022/06/02 03:06:26;;;;;;;6.67;5.80;;;;;;;20.84;69.35;100667.83;1626788;86;21678;-71
2022/06/02 03:09:20;;;;;;;6.87;5.70;;;;;;;20.84;69.27;100671.91;1622287;86;21050;-73
2022/06/02 03:12:09;;;;;;;6.27;5.50;;;;;;;20.84;69.25;100680.05;1600005;88;21182;-71
2022/06/02 03:15:09;;;;;;;7.27;5.73;;;;;;;20.80;69.19;100675.83;1625067;86;21036;-72
2022/06/02 03:18:05;;;;;;;5.95;5.35;;;;;;;20.73;69.35;100673.34;1628172;87;21049;-72
2022/06/02 03:20:38;;;;;;;8.33;6.00;;;;;;;20.61;69.43;100680.81;1603219;87;21501;-72
2022/06/02 03:23:49;;;;;;;6.63;5.80;;;;;;;20.52;69.65;100676.73;1625638;86;21244;-72
2022/06/02 03:26:31;;;;;;;7.05;5.97;;;;;;;20.48;69.83;100666.27;1622166;86;21243;-73
2022/06/02 03:29:30;;;;;;;;;;;;;;;20.44;69.61;100662.60;1628928;86;21084;-72
2022/06/02 03:32:24;;;;;;;7.30;6.57;;;;;;;20.43;69.44;100663.70;1625991;86;20137;-72
2022/06/02 03:35:30;;;;;;;7.70;6.77;;;;;;;20.48;69.29;100668.19;1624241;86;21766;-72
2022/06/02 03:38:18;;;;;;;8.30;7.40;;;;;;;20.47;69.10;100668.75;1620711;86;21021;-72
2022/06/02 03:41:17;;;;;;;10.10;7.77;;;;;;;20.54;68.70;100668.30;1595350;88;22228;-72
2022/06/02 03:44:11;;;;;;;11.30;9.63;;;;;;;20.60;68.31;100669.72;1639131;86;21054;-73
2022/06/02 03:47:08;;;;;;;11.73;9.70;;;;;;;20.65;68.16;100667.39;1626000;86;21136;-72
2022/06/02 03:50:16;;;;;;;9.53;8.53;;;;;;;20.68;68.03;100675.69;1625491;85;21036;-72
2022/06/02 03:53:24;;;;;;;9.70;8.23;;;;;;;20.68;68.06;100680.32;1631693;85;21199;-72
2022/06/02 03:56:39;;;;;;;8.83;7.83;;;;;;;20.70;68.01;100693.02;1624224;86;21302;-71
2022/06/02 03:59:43;;;;;;;9.53;8.20;;;;;;;20.78;67.94;100692.20;1624855;85;21147;-72
2022/06/02 04:02:14;;;;;;;8.67;7.77;;;;;;;20.83;68.12;100687.41;1620836;86;21025;-72
2022/06/02 04:05:03;;;;;;;10.23;8.07;;;;;;;20.92;68.08;100687.36;1619381;86;21005;-72
2022/06/02 04:07:47;;;;;;;8.77;7.87;;;;;;;20.94;68.00;100679.70;1620738;86;21081;-72
2022/06/02 04:10:46;;;;;;;9.17;8.37;;;;;;;20.94;68.03;100678.34;1620966;86;21168;-72
2022/06/02 04:13:40;;;;;;;9.40;8.37;;;;;;;21.00;67.88;100681.69;1601022;88;21138;-72
2022/06/02 04:16:15;;;;;;;9.60;8.60;;;;;;;21.10;67.82;100680.55;1622034;86;21241;-72
2022/06/02 04:22:26;;;;;;;8.47;7.57;;;;;;;21.30;67.69;100667.03;1608354;86;21060;-71
2022/06/02 04:25:40;;;;;;;9.53;7.70;;;;;;;21.44;67.25;100665.48;1642410;86;21646;-71
2022/06/02 04:28:43;;;;;;;8.33;7.53;;;;;;;21.58;65.93;100667.95;1551042;89;21023;-71
2022/06/02 04:31:48;;;;;;;8.90;8.00;;;;;;;21.73;65.15;100669.33;1599541;88;21582;-71
2022/06/02 04:34:47;;;;;;;8.40;7.50;;;;;;;21.92;63.91;100672.97;1596099;88;21156;-72
2022/06/02 04:37:45;;;;;;;9.37;7.40;;;;;;;22.04;63.20;100668.16;1627433;86;21075;-71
2022/06/02 04:40:35;;;;;;;8.87;7.97;;;;;;;22.19;62.45;100667.59;1622552;86;21490;-72
2022/06/02 04:43:31;;;;;;;8.70;6.90;;;;;;;22.36;62.12;100661.20;1633070;85;21518;-71
2022/06/02 04:46:29;;;;;;;7.40;6.60;;;;;;;22.48;61.53;100669.43;1631435;86;21385;-72
2022/06/02 04:49:30;;;;;;;8.17;6.57;;;;;;;22.66;60.67;100676.85;1627943;85;21092;-71
2022/06/02 04:52:05;;;;;;;7.47;6.63;;;;;;;22.74;60.17;100682.79;1595078;88;21005;-71
2022/06/02 04:55:02;;;;;;;7.53;6.77;;;;;;;22.89;60.02;100690.30;1592162;88;21105;-73
2022/06/02 04:57:56;;;;;;;7.70;6.93;;;;;;;23.03;59.70;100687.30;1625248;86;21049;-72
2022/06/02 05:00:54;;;;;;;7.33;6.63;;;;;;;23.13;58.81;100681.44;1600704;87;21645;-73
2022/06/02 05:03:49;;;;;;;7.20;6.00;;;;;;;23.15;58.27;100678.36;1622952;86;21143;-73
2022/06/02 05:06:46;;;;;;;8.57;6.20;;;;;;;23.17;58.17;100674.73;1622915;85;21072;-71
2022/06/02 05:09:54;;;;;;;7.70;6.27;;;;;;;23.25;58.26;100679.27;1623899;86;21146;-72
2022/06/02 05:12:50;;;;;;;6.57;5.73;;;;;;;23.36;57.83;100678.25;1595789;87;21050;-73
2022/06/02 05:15:22;;;;;;;6.77;5.60;;;;;;;23.46;57.75;100676.46;1622113;86;21057;-72
2022/06/02 05:18:29;;;;;;;6.70;5.50;;;;;;;23.56;57.44;100665.64;1637231;85;22209;-72
2022/06/02 05:21:14;;;;;;;5.93;5.30;;;;;;;23.61;57.25;100669.50;1628184;86;21099;-73
2022/06/02 05:24:02;;;;;;;6.13;5.10;;;;;;;23.70;57.27;100665.34;1622058;86;21665;-72
2022/06/02 05:26:43;;;;;;;7.00;5.67;;;;;;;23.82;57.23;100665.30;1625252;86;21100;-73
2022/06/02 05:29:30;;;;;;;;;;;;;;;23.95;55.92;100675.05;1635836;86;21134;-72
2022/06/02 05:32:31;;;;;;;6.67;5.70;;;;;;;24.04;55.80;100670.83;1629568;88;20401;-71
2022/06/02 05:35:26;;;;;;;10.53;6.17;;;;;;;24.10;55.42;100671.61;1625927;87;21500;-71
2022/06/02 05:38:04;;;;;;;6.73;5.67;;;;;;;24.07;55.18;100663.31;1631382;86;21347;-72
2022/06/02 05:41:17;;;;;;;7.43;5.70;;;;;;;24.10;55.82;100660.69;1613057;88;21111;-72
2022/06/02 05:43:59;;;;;;;7.47;5.30;;;;;;;24.23;55.18;100655.20;1605173;88;21049;-72
2022/06/02 05:46:38;;;;;;;6.50;5.72;;;;;;;24.41;55.26;100657.08;1623093;86;20985;-71
2022/06/02 05:49:22;;;;;;;7.67;5.20;;;;;;;24.63;54.94;100653.79;1630397;86;21112;-73
2022/06/02 05:52:13;;;;;;;6.80;5.57;;;;;;;24.79;54.48;100653.82;1630578;86;21264;-73
2022/06/02 05:55:13;;;;;;;6.72;6.03;;;;;;;24.87;54.38;100655.58;1628094;86;21521;-72
2022/06/02 05:58:02;;;;;;;7.07;5.67;;;;;;;24.84;54.18;100657.64;1630568;86;21077;-73
2022/06/02 06:00:41;;;;;;;6.80;6.10;;;;;;;24.84;54.29;100648.08;1630407;86;21075;-73
2022/06/02 06:03:32;;;;;;;7.53;6.53;;;;;;;24.85;54.64;100653.78;1612549;87;21041;-73
2022/06/02 06:06:35;;;;;;;6.58;5.97;;;;;;;24.84;54.99;100657.64;1650740;85;22020;-72
2022/06/02 06:09:09;;;;;;;7.10;6.40;;;;;;;24.84;55.07;100657.64;1650743;85;21421;-73
2022/06/02 06:12:01;;;;;;;7.20;6.13;;;;;;;24.88;55.23;100665.38;1650486;85;21109;-73
2022/06/02 06:15:21;;;;;;;7.70;6.93;;;;;;;24.99;55.12;100669.17;1624679;86;21034;-73
2022/06/02 06:17:53;;;;;;;7.17;6.30;;;;;;;25.23;54.66;100661.39;1604761;88;21121;-71
2022/06/02 06:20:38;;;;;;;7.07;6.37;;;;;;;25.37;54.08;100659.59;1626366;86;21630;-72
2022/06/02 06:23:20;;;;;;;7.10;6.17;;;;;;;25.46;54.09;100664.85;1619692;87;20956;-72
2022/06/02 06:26:21;;;;;;;6.53;5.92;;;;;;;25.59;54.19;100665.54;1622583;86;26705;-72
2022/06/02 06:29:32;;;;;;;5.97;5.10;;;;;;;25.60;53.74;100667.12;1621616;86;21693;-73
2022/06/02 06:32:38;;;;;;;6.10;5.17;;;;;;;25.75;52.81;100669.03;1597216;88;21635;-72
2022/06/02 06:35:44;;;;;;;5.97;5.00;;;;;;;25.79;53.00;100665.80;1620706;87;21159;-72
2022/06/02 06:38:36;;;;;;;6.20;4.43;;;;;;;25.83;52.58;100659.06;1644038;85;21507;-73
2022/06/02 06:41:37;;;;;;;4.90;4.40;;;;;;;25.81;51.15;100667.64;1628741;86;21254;-72
2022/06/02 06:44:18;;;;;;;5.03;3.83;;;;;;;25.86;50.50;100674.19;1621761;85;21016;-72
2022/06/02 06:47:06;;;;;;;5.08;3.77;;;;;;;25.92;48.93;100670.60;1622223;86;21617;-72
2022/06/02 06:49:42;;;;;;;4.77;3.70;;;;;;;26.05;48.47;100683.00;1623276;86;21294;-72
2022/06/02 06:52:32;;;;;;;5.23;4.00;;;;;;;26.16;47.70;100682.67;1621713;86;21630;-72
2022/06/02 06:55:16;;;;;;;4.67;3.87;;;;;;;26.22;47.86;100679.62;1598521;88;21124;-72
2022/06/02 06:58:28;;;;;;;5.63;3.60;;;;;;;26.27;48.00;100676.03;1577129;87;21052;-72
2022/06/02 07:01:38;;;;;;;4.03;3.60;;;;;;;26.30;47.40;100686.27;1621588;85;21174;-71
2022/06/02 07:04:44;;;;;;;4.80;3.20;;;;;;;26.29;46.56;100686.61;1625315;86;21639;-73
2022/06/02 07:07:27;;;;;;;5.10;3.70;;;;;;;26.41;46.54;100683.16;1598677;88;21024;-71
2022/06/02 07:10:14;;;;;;;4.10;3.23;;;;;;;26.53;46.60;100691.05;1622238;86;21443;-72
2022/06/02 07:13:18;;;;;;;4.67;3.40;;;;;;;26.68;46.46;100687.98;1627557;87;21097;-72
2022/06/02 07:15:57;;;;;;;6.57;3.77;;;;;;;26.90;45.40;100691.34;1631046;88;21607;-73
2022/06/02 07:18:58;;;;;;;4.20;3.63;;;;;;;27.05;45.13;100699.25;1603597;87;21273;-73
2022/06/02 07:21:43;;;;;;;5.73;3.60;;;;;;;27.09;44.35;100700.09;1545205;89;21102;-72
2022/06/02 07:24:41;;;;;;;4.97;4.10;;;;;;;27.10;44.93;100698.34;1598761;87;21126;-73
2022/06/02 07:27:34;;;;;;;5.07;3.80;;;;;;;27.18;44.53;100708.08;1598843;87;21614;-73
2022/06/02 07:30:09;;;;;;;5.17;3.70;;;;;;;27.14;44.48;100709.40;1623954;86;21107;-73
2022/06/02 07:33:10;;;;;;;5.10;3.73;;;;;;;27.19;44.53;100706.36;1621779;86;21181;-72
2022/06/02 07:36:23;;;;;;;4.10;3.30;;;;;;;27.23;44.49;100707.79;1596865;86;21755;-73
2022/06/02 07:39:26;;;;;;;5.63;3.20;;;;;;;27.31;44.86;100714.41;1626684;86;21097;-73
2022/06/02 07:42:08;;;;;;;5.33;3.10;;;;;;;27.34;42.72;100718.34;1603100;88;21572;-73
2022/06/02 07:45:15;;;;;;;4.05;2.83;;;;;;;27.36;42.44;100723.69;1611570;86;21714;-73
2022/06/02 07:48:22;;;;;;;5.30;3.20;;;;;;;27.44;42.84;100724.58;1627979;88;21159;-72
2022/06/02 07:51:25;;;;;;;4.27;2.93;;;;;;;27.52;42.75;100726.88;1630616;88;21078;-72
2022/06/02 07:54:14;;;;;;;4.93;3.00;;;;;;;27.66;42.39;100716.70;1611617;88;21099;-72
2022/06/02 07:56:56;;;;;;;3.73;2.90;;;;;;;27.72;41.93;100726.98;1630800;86;21106;-71
2022/06/02 07:59:47;;;;;;;3.93;2.80;;;;;;;27.75;41.42;100726.25;1621530;87;21051;-72
2022/06/02 08:03:06;;;;;;;3.90;3.00;;;;;;;27.79;41.45;100731.23;1621991;88;21139;-73
2022/06/02 08:06:08;;;;;;;3.90;2.80;;;;;;;27.73;41.03;100727.19;1630503;86;21540;-72
2022/06/02 08:09:14;;;;;;;3.73;2.37;;;;;;;27.62;41.36;100730.36;1612837;86;21112;-73
2022/06/02 08:12:05;;;;;;;10.27;3.70;;;;;;;27.66;40.25;100731.79;1611822;87;21097;-73
2022/06/02 08:14:50;;;;;;;4.97;2.90;;;;;;;27.67;40.12;100736.11;1650695;85;21057;-72
2022/06/02 08:17:29;;;;;;;3.70;2.80;;;;;;;27.70;40.70;100738.91;1649075;85;21124;-72
2022/06/02 08:20:34;;;;;;;3.73;2.50;;;;;;;27.80;41.03;100745.75;1645312;85;21074;-73
2022/06/02 08:23:25;;;;;;;3.40;2.67;;;;;;;27.94;40.77;100739.70;1629769;86;21137;-73
2022/06/02 08:26:05;;;;;;;3.77;2.60;;;;;;;28.07;41.14;100742.42;1629568;86;21093;-71
2022/06/02 08:28:54;;;;;;;4.70;2.67;;;;;;;28.16;39.79;100741.55;1626440;87;21096;-73
2022/06/02 08:32:18;;;;;;;5.40;2.37;;;;;;;28.27;40.05;100741.70;1611076;87;21271;-73
2022/06/02 08:35:14;;;;;;;5.03;2.63;;;;;;;28.38;40.33;100744.58;1650818;85;21067;-72
2022/06/02 08:37:59;;;;;;;3.00;2.50;;;;;;;28.44;40.30;100741.75;1647265;85;21016;-73
2022/06/02 08:40:54;;;;;;;3.57;2.53;;;;;;;28.50;40.07;100743.00;1652867;85;21092;-71
2022/06/02 08:43:44;;;;;;;3.30;2.40;;;;;;;28.53;39.86;100740.88;1623967;86;21128;-73
2022/06/02 08:46:32;;;;;;;4.62;2.45;;;;;;;28.60;40.16;100740.96;1621439;86;21684;-72
2022/06/02 08:49:23;;;;;;;4.00;2.50;;;;;;;28.62;39.59;100735.86;1602371;88;20890;-72
2022/06/02 08:52:24;;;;;;;3.30;2.45;;;;;;;28.69;39.71;100740.64;1628388;88;21021;-73
2022/06/02 08:55:30;;;;;;;4.10;2.63;;;;;;;28.79;39.21;100738.59;1627956;87;21088;-71
2022/06/02 08:58:26;;;;;;;3.83;2.67;;;;;;;28.87;39.82;100742.23;1524856;92;21174;-72
2022/06/02 09:01:30;;;;;;;4.90;2.60;;;;;;;29.00;38.97;100739.45;1524788;92;21106;-72
2022/06/02 09:04:31;;;;;;;3.53;2.57;;;;;;;29.08;39.05;100740.29;1604154;86;21069;-72
2022/06/02 09:07:11;;;;;;;;;;;;;;;29.10;39.20;100738.75;1603306;88;21479;-72
2022/06/02 09:10:28;;;;;;;3.37;2.47;;;;;;;29.22;39.28;100732.19;1600693;88;20308;-73
2022/06/02 09:13:03;;;;;;;3.63;2.50;;;;;;;29.29;38.42;100723.99;1637573;86;21028;-71
2022/06/02 09:15:58;;;;;;;3.30;2.43;;;;;;;29.29;38.80;100728.13;1624240;86;21354;-70
2022/06/02 09:19:11;;;;;;;3.43;2.50;;;;;;;29.30;37.58;100724.19;1625251;86;21064;-72
2022/06/02 09:22:03;;;;;;;3.20;2.33;;;;;;;29.25;37.53;100719.02;1644050;85;20982;-72
2022/06/02 09:25:03;;;;;;;3.87;2.40;;;;;;;29.25;38.33;100727.27;1644446;85;21020;-72
2022/06/02 09:28:27;;;;;;;3.30;2.35;;;;;;;29.29;38.38;100722.62;1646484;85;21123;-72
2022/06/02 09:31:34;;;;;;;2.93;2.13;;;;;;;29.39;37.89;100727.41;1612207;88;21148;-72
2022/06/02 09:34:35;;;;;;;4.10;2.10;;;;;;;29.46;36.72;100718.42;1625226;86;21053;-72
2022/06/02 09:37:24;;;;;;;2.90;1.90;;;;;;;29.47;35.50;100717.83;1628616;86;21053;-72
2022/06/02 09:40:12;;;;;;;2.50;1.80;;;;;;;29.37;35.97;100723.45;1626762;86;21122;-72
2022/06/02 09:42:59;;;;;;;3.30;2.00;;;;;;;29.30;36.10;100718.69;1637928;86;21017;-72
2022/06/02 09:46:13;;;;;;;3.00;2.20;;;;;;;29.32;36.16;100716.36;1627797;86;21929;-73
2022/06/02 09:49:20;;;;;;;3.17;1.83;;;;;;;29.42;36.00;100716.23;1602234;88;21044;-71
2022/06/02 09:52:11;;;;;;;4.40;2.50;;;;;;;29.50;36.44;100716.48;1620761;86;21103;-72
2022/06/02 09:54:56;;;;;;;4.27;2.20;;;;;;;29.41;36.35;100712.67;1625181;86;20990;-72
2022/06/02 10:00:57;;;;;;;3.53;2.20;;;;;;;29.40;36.50;100697.93;1654130;85;21592;-71
2022/06/02 10:04:12;;;;;;;3.63;2.53;;;;;;;29.45;35.93;100700.31;1592632;88;21034;-72
2022/06/02 10:07:26;;;;;;;4.67;2.40;;;;;;;29.50;36.58;100696.43;1625306;86;21141;-72
2022/06/02 10:10:18;;;;;;;3.20;2.07;;;;;;;29.61;35.93;100689.84;1625655;86;21743;-72
2022/06/02 10:13:07;;;;;;;3.67;2.20;;;;;;;29.71;35.72;100689.70;1630472;86;21056;-72
2022/06/02 10:15:50;;;;;;;5.10;2.40;;;;;;;29.86;35.61;100680.95;1630317;86;21277;-72
2022/06/02 10:18:48;;;;;;;4.10;2.30;;;;;;;30.04;35.65;100680.45;1602130;88;21126;-72
2022/06/02 10:22:05;;;;;;;4.53;2.10;;;;;;;30.15;35.88;100671.64;1628917;86;21065;-72
2022/06/02 10:25:19;;;;;;;2.93;2.37;;;;;;;30.29;35.01;100670.92;1645819;85;21112;-71
2022/06/02 10:28:00;;;;;;;3.57;2.60;;;;;;;30.32;35.34;100667.98;1612768;86;22287;-72
2022/06/02 10:30:53;;;;;;;3.40;2.72;;;;;;;30.36;35.50;100658.54;1631558;85;21562;-71
2022/06/02 10:33:35;;;;;;;4.67;2.53;;;;;;;30.25;35.67;100650.06;1621381;86;21070;-73
2022/06/02 10:36:45;;;;;;;3.33;2.47;;;;;;;30.28;36.14;100646.53;1644850;86;21618;-72
2022/06/02 10:39:37;;;;;;;3.50;2.30;;;;;;;30.41;35.93;100643.61;1631755;85;21117;-72
2022/06/02 10:42:47;;;;;;;2.90;2.40;;;;;;;30.55;35.40;100641.47;1650026;85;21108;-72
2022/06/02 10:45:55;;;;;;;4.33;2.60;;;;;;;30.56;34.65;100632.79;1635706;85;21227;-72
2022/06/02 10:48:49;;;;;;;3.87;2.57;;;;;;;30.20;35.25;100627.79;1622007;86;21562;-72
2022/06/02 10:51:49;;;;;;;5.00;2.70;;;;;;;30.06;35.79;100617.49;1622318;86;21079;-72
2022/06/02 10:54:56;;;;;;;4.43;2.77;;;;;;;30.13;35.07;100612.00;1621699;86;21489;-72
2022/06/02 10:58:22;;;;;;;5.57;2.90;;;;;;;30.06;35.24;100606.47;1628133;86;21125;-71
2022/06/02 11:01:18;;;;;;;6.33;3.30;;;;;;;30.14;35.09;100605.33;1630033;86;22016;-73
2022/06/02 11:04:19;;;;;;;7.17;3.13;;;;;;;30.16;34.63;100595.29;1603398;88;21093;-72
2022/06/02 11:07:23;;;;;;;5.65;3.22;;;;;;;30.23;35.55;100591.20;1598604;88;21154;-72
2022/06/02 11:10:29;;;;;;;7.93;3.60;;;;;;;30.39;35.43;100586.70;1600378;88;21069;-71
2022/06/02 11:13:36;;;;;;;5.87;3.00;;;;;;;30.55;34.30;100577.47;1598288;87;21082;-72
2022/06/02 11:16:58;;;;;;;5.40;3.10;;;;;;;30.75;33.78;100586.73;1604067;88;21092;-73
2022/06/02 11:19:55;;;;;;;4.10;3.00;;;;;;;30.82;33.98;100575.73;1630727;86;28270;-71
2022/06/02 11:22:47;;;;;;;3.83;2.93;;;;;;;30.84;33.93;100576.92;1615920;86;21683;-71
2022/06/02 11:25:55;;;;;;;4.03;2.70;;;;;;;30.91;33.36;100573.96;1630551;86;21086;-71
2022/06/02 11:29:01;;;;;;;5.00;2.93;;;;;;;30.96;33.07;100577.09;1575346;91;21056;-72
2022/06/02 11:31:50;;;;;;;7.23;3.30;;;;;;;31.01;33.65;100567.64;1581187;89;21163;-73
2022/06/02 11:34:34;;;;;;;5.80;3.30;;;;;;;31.10;32.97;100564.45;1633928;87;21508;-71
2022/06/02 11:37:15;;;;;;;5.10;2.70;;;;;;;31.19;33.06;100557.34;1645948;85;21048;-72
2022/06/02 11:40:03;;;;;;;4.72;2.85;;;;;;;31.37;32.76;100549.06;1629698;85;21076;-72
2022/06/02 11:42:45;;;;;;;6.10;3.10;;;;;;;31.40;32.31;100552.41;1631072;85;21099;-72
2022/06/02 11:45:17;;;;;;;5.65;3.40;;;;;;;31.23;32.43;100547.70;1631182;86;21878;-72
2022/06/02 11:48:08;;;;;;;7.03;3.87;;;;;;;31.12;32.07;100544.17;1628103;88;21084;-72
2022/06/02 11:51:34;;;;;;;6.42;3.05;;;;;;;31.06;31.42;100549.30;1631239;88;21084;-73
2022/06/02 11:54:19;;;;;;;5.63;3.00;;;;;;;31.06;31.89;100540.45;1608778;87;21097;-72
2022/06/02 11:56:57;;;;;;;4.60;3.00;;;;;;;31.17;32.68;100544.55;1628012;86;21148;-72
2022/06/02 11:59:57;;;;;;;4.70;2.60;;;;;;;31.37;32.32;100546.30;1650554;85;21996;-72
2022/06/02 12:03:00;;;;;;;6.13;3.13;;;;;;;31.47;31.91;100539.17;1590226;88;20995;-72
2022/06/02 12:05:48;;;;;;;4.47;2.90;;;;;;;31.44;31.82;100540.75;1611198;86;21553;-73
2022/06/02 12:08:27;;;;;;;11.63;3.57;;;;;;;31.40;31.76;100534.47;1654760;85;21147;-72
2022/06/02 12:11:19;;;;;;;6.63;3.47;;;;;;;31.49;31.77;100538.97;1634939;86;21077;-72
2022/06/02 12:13:55;;;;;;;7.67;3.20;;;;;;;31.58;31.51;100536.36;1613493;87;21718;-71
2022/06/02 12:16:51;;;;;;;5.23;3.13;;;;;;;31.51;31.59;100531.66;1627749;86;21073;-72
2022/06/02 12:19:55;;;;;;;5.73;2.73;;;;;;;31.46;31.67;100532.87;1628296;86;21005;-72
2022/06/02 12:22:52;;;;;;;5.13;2.83;;;;;;;31.47;32.04;100538.58;1627126;85;21085;-72
2022/06/02 12:25:51;;;;;;;6.37;3.10;;;;;;;31.53;32.15;100536.20;1596969;88;21194;-73
2022/06/02 12:28:43;;;;;;;6.37;3.15;;;;;;;31.56;31.69;100539.53;1622736;86;22010;-72
2022/06/02 12:31:37;;;;;;;5.30;2.70;;;;;;;31.55;31.50;100544.84;1627415;86;21069;-73
2022/06/02 12:34:52;;;;;;;4.77;2.90;;;;;;;31.54;31.87;100546.82;1626258;86;21198;-72
2022/06/02 12:37:34;;;;;;;4.93;2.77;;;;;;;31.47;31.96;100546.08;1620989;85;21111;-73
2022/06/02 12:40:32;;;;;;;4.67;3.00;;;;;;;31.56;32.04;100546.44;1622825;85;21058;-72
2022/06/02 12:43:47;;;;;;;6.13;3.07;;;;;;;31.57;31.99;100543.08;1621257;86;21263;-72
2022/06/02 12:46:36;;;;;;;5.62;2.83;;;;;;;31.61;31.83;100539.11;1597876;88;21181;-71
2022/06/02 12:49:40;;;;;;;5.35;2.58;;;;;;;31.64;32.23;100542.45;1624669;86;21050;-73
2022/06/02 12:52:47;;;;;;;4.43;2.63;;;;;;;31.57;32.21;100532.82;1620627;86;21131;-72
2022/06/02 12:55:37;;;;;;;4.80;2.90;;;;;;;31.29;32.45;100529.53;1623018;86;21200;-73
2022/06/02 12:58:25;;;;;;;4.33;2.77;;;;;;;30.97;32.68;100508.95;1622621;86;21156;-72
2022/06/02 13:01:34;;;;;;;6.10;3.00;;;;;;;30.87;31.96;100506.41;1621590;86;21083;-71
2022/06/02 13:04:24;;;;;;;5.58;2.70;;;;;;;31.01;32.27;100504.98;1624067;86;21084;-72
2022/06/02 13:07:16;;;;;;;4.33;2.33;;;;;;;31.20;31.95;100498.84;1622717;86;21069;-71
2022/06/02 13:10:23;;;;;;;4.42;2.70;;;;;;;31.80;31.58;100492.27;1620265;87;21244;-73
2022/06/02 13:13:09;;;;;;;4.33;2.40;;;;;;;32.12;31.07;100489.33;1627735;86;21750;-73
2022/06/02 13:16:23;;;;;;;7.22;2.52;;;;;;;32.07;30.85;100488.97;1627064;86;21057;-73
2022/06/02 13:19:33;;;;;;;5.12;2.60;;;;;;;32.29;30.54;100469.66;1626291;86;21160;-72
2022/06/02 13:22:39;;;;;;;4.60;2.60;;;;;;;32.43;30.64;100461.86;1627839;86;21110;-72
2022/06/02 13:25:18;;;;;;;4.95;2.83;;;;;;;32.50;30.43;100455.48;1628068;86;21093;-72
2022/06/02 13:28:05;;;;;;;4.72;2.65;;;;;;;32.49;30.47;100460.22;1628451;88;21559;-71
2022/06/02 13:31:24;;;;;;;5.42;2.70;;;;;;;32.38;30.69;100457.53;1621490;86;21067;-72
2022/06/02 13:34:15;;;;;;;3.65;2.40;;;;;;;32.25;31.22;100453.70;1613373;86;20986;-72
2022/06/02 13:37:28;;;;;;;4.00;2.55;;;;;;;32.25;31.70;100449.56;1643068;86;21584;-72
2022/06/02 13:40:45;;;;;;;3.77;2.75;;;;;;;32.26;31.80;100452.50;1658057;85;21024;-72
2022/06/02 13:43:43;;;;;;;4.00;2.60;;;;;;;32.24;31.84;100452.89;1641309;86;21664;-72
2022/06/02 13:46:49;;;;;;;3.83;2.70;;;;;;;32.22;31.60;100464.19;1628067;88;21074;-72